^^
Station Historical Data
 
Daily Summary for June 24, 2017 Units:  Metric    English   Both
« Previous Day
Next Day »
Daily Weekly Monthly Yearly Custom
  Current: High: Low: Average:
Temperature: 12.9 °C 15.1 °C 12.9 °C 14.3 °C
Dew Point: 10.3 °C 12.9 °C 10.3 °C 12 °C
Humidity: 84 % 87 % 84 % 86 %
Wind Speed: 5.6 km/h 14.8 km/h 1.9 km/h 7.6 km/h
Wind Gust: 5.6 km/h 14.8 km/h - -
Wind:WNW - - West
Pressure: 1008 hPa 1008.4 hPa 1007.7 hPa -
Precipitation: 0 mm      
Historical Graphs
 
 
Tabular Data for June 24, 2017
Time Temperature Dew Point Pressure Wind Wind Speed Wind Gust Humidity Rainfall Rate (Hourly) solar Conditions
00:03 15.1 °C 12.9 °C 1008.4 hPa WSW 11.1 km/h 11.1 km/h 87 % 0 mm 0.0 W/m2 SCT
00:08 15.1 °C 12.9 °C 1008.4 hPa WSW 7.4 km/h 7.4 km/h 87 % 0 mm 0.0 W/m2 SCT
00:13 15.1 °C 12.9 °C 1008.4 hPa WSW 7.4 km/h 7.4 km/h 87 % 0 mm 0.0 W/m2 SCT
00:18 15 °C 12.8 °C 1008.4 hPa WSW 7.4 km/h 7.4 km/h 87 % 0 mm 0.0 W/m2 SCT
00:23 15 °C 12.8 °C 1008 hPa WSW 5.6 km/h 5.6 km/h 87 % 0 mm 0.0 W/m2 SCT
00:28 14.9 °C 12.8 °C 1008 hPa WSW 7.4 km/h 7.4 km/h 87 % 0 mm 0.0 W/m2 SCT
00:33 14.9 °C 12.8 °C 1008 hPa WSW 5.6 km/h 5.6 km/h 87 % 0 mm 0.0 W/m2 SCT
00:38 14.9 °C 12.8 °C 1008 hPa WSW 1.9 km/h 1.9 km/h 87 % 0 mm 0.0 W/m2 SCT
00:43 14.9 °C 12.8 °C 1008 hPa WSW 3.7 km/h 3.7 km/h 87 % 0 mm 0.0 W/m2 SCT
00:48 14.9 °C 12.7 °C 1008 hPa WSW 5.6 km/h 5.6 km/h 87 % 0 mm 0.0 W/m2 SCT
00:58 14.8 °C 12.7 °C 1008 hPa WSW 5.6 km/h 5.6 km/h 87 % 0 mm 0.0 W/m2 SCT
01:03 14.8 °C 12.4 °C 1007.7 hPa West 9.3 km/h 9.3 km/h 86 % 0 mm 0.0 W/m2 SCT
01:08 14.7 °C 12.3 °C 1008 hPa WSW 7.4 km/h 7.4 km/h 86 % 0 mm 0.0 W/m2 SCT
01:13 14.6 °C 12.3 °C 1008 hPa WSW 6.4 km/h 6.4 km/h 86 % 0 mm 0.0 W/m2 SCT
01:18 14.6 °C 12.4 °C 1008 hPa WSW 6.4 km/h 6.4 km/h 87 % 0 mm 0.0 W/m2 SCT
01:23 14.5 °C 12.2 °C 1008 hPa WSW 5.6 km/h 5.6 km/h 86 % 0 mm 0.0 W/m2 SCT
01:28 14.4 °C 12.1 °C 1008 hPa WSW 9.3 km/h 9.3 km/h 86 % 0 mm 0.0 W/m2 SCT
01:33 14.4 °C 12.1 °C 1008 hPa West 7.4 km/h 7.4 km/h 86 % 0 mm 0.0 W/m2 SCT
01:34 14.4 °C 12.1 °C 1008 hPa NW 5.6 km/h 5.6 km/h 86 % 0 mm 0.0 W/m2 SCT
01:39 14.4 °C 12.1 °C 1008 hPa WSW 7.4 km/h 7.4 km/h 86 % 0 mm 0.0 W/m2 SCT
01:44 14.4 °C 12.1 °C 1008 hPa WSW 5.6 km/h 5.6 km/h 86 % 0 mm 0.0 W/m2 SCT
01:49 14.4 °C 12.1 °C 1008 hPa SW 5.6 km/h 5.6 km/h 86 % 0 mm 0.0 W/m2 SCT
01:54 14.4 °C 12.1 °C 1008 hPa West 9.3 km/h 9.3 km/h 86 % 0 mm 0.0 W/m2 SCT
01:59 14.4 °C 12.1 °C 1007.7 hPa West 5.6 km/h 5.6 km/h 86 % 0 mm 0.0 W/m2 SCT
02:04 14.3 °C 12 °C 1008 hPa WSW 9.7 km/h 9.7 km/h 86 % 0 mm 0.0 W/m2 SCT
02:09 14.3 °C 12 °C 1008 hPa West 5.6 km/h 5.6 km/h 86 % 0 mm 0.0 W/m2 SCT
02:14 14.3 °C 12 °C 1008 hPa WSW 11.1 km/h 11.1 km/h 86 % 0 mm 0.0 W/m2 SCT
02:19 14.3 °C 12 °C 1008 hPa West 8 km/h 8 km/h 86 % 0 mm 0.0 W/m2 SCT
02:24 14.3 °C 12.2 °C 1008 hPa West 6.4 km/h 6.4 km/h 87 % 0 mm 0.0 W/m2 SCT
02:29 14.3 °C 12.2 °C 1008 hPa WNW 7.4 km/h 7.4 km/h 87 % 0 mm 0.0 W/m2 SCT
02:34 14.3 °C 12.2 °C 1008 hPa NW 7.4 km/h 7.4 km/h 87 % 0 mm 0.0 W/m2 SCT
02:39 14.3 °C 12.2 °C 1008 hPa West 9.7 km/h 9.7 km/h 87 % 0 mm 0.0 W/m2 SCT
02:44 14.3 °C 12.2 °C 1008.4 hPa West 9.3 km/h 9.3 km/h 87 % 0 mm 0.0 W/m2 SCT
02:49 14.3 °C 12.2 °C 1008.4 hPa West 5.6 km/h 5.6 km/h 87 % 0 mm 0.0 W/m2 SCT
02:54 14.3 °C 12.2 °C 1008.4 hPa WNW 5.6 km/h 5.6 km/h 87 % 0 mm 0.0 W/m2 SCT
02:59 14.3 °C 12.2 °C 1008.4 hPa West 5.6 km/h 5.6 km/h 87 % 0 mm 0.0 W/m2 SCT
03:04 14.3 °C 12.2 °C 1008.4 hPa West 9.3 km/h 9.3 km/h 87 % 0 mm 0.0 W/m2 SCT
03:09 14.3 °C 12.2 °C 1008.4 hPa WNW 11.3 km/h 11.3 km/h 87 % 0 mm 0.0 W/m2 SCT
03:14 14.2 °C 12.1 °C 1008.4 hPa WNW 7.4 km/h 7.4 km/h 87 % 0 mm 0.0 W/m2 SCT
03:19 14.2 °C 12.1 °C 1008.4 hPa NW 14.8 km/h 14.8 km/h 87 % 0 mm 0.0 W/m2 SCT
03:24 14.1 °C 11.8 °C 1008.4 hPa West 12.9 km/h 12.9 km/h 86 % 0 mm 0.0 W/m2 SCT
03:29 14.1 °C 11.7 °C 1008.4 hPa West 7.4 km/h 7.4 km/h 86 % 0 mm 0.0 W/m2 SCT
03:34 14 °C 11.7 °C 1008.4 hPa NW 5.6 km/h 5.6 km/h 86 % 0 mm 0.0 W/m2 SCT
03:39 13.9 °C 11.7 °C 1008.4 hPa West 14.8 km/h 14.8 km/h 86 % 0 mm 0.0 W/m2 SCT
03:44 13.8 °C 11.3 °C 1008 hPa West 11.1 km/h 11.1 km/h 85 % 0 mm 0.0 W/m2 SCT
03:49 13.7 °C 11.2 °C 1008 hPa West 11.1 km/h 11.1 km/h 85 % 0 mm 0.0 W/m2 SCT
03:54 13.5 °C 11 °C 1008 hPa West 11.1 km/h 11.1 km/h 85 % 0 mm 0.0 W/m2 SCT
03:59 13.4 °C 10.9 °C 1008 hPa WSW 5.6 km/h 5.6 km/h 85 % 0 mm 0.0 W/m2 SCT
04:04 13.3 °C 10.9 °C 1008 hPa WSW 5.6 km/h 5.6 km/h 85 % 0 mm 0.0 W/m2 SCT
04:05 13.3 °C 10.9 °C 1008 hPa WSW 5.6 km/h 5.6 km/h 85 % 0 mm 0.0 W/m2 SCT
04:10 13.3 °C 10.8 °C 1008 hPa West 9.3 km/h 9.3 km/h 85 % 0 mm 0.0 W/m2 SCT
04:15 13.2 °C 10.7 °C 1008 hPa SW 5.6 km/h 5.6 km/h 85 % 0 mm 0.0 W/m2 SCT
04:20 13.1 °C 10.7 °C 1008 hPa West 3.7 km/h   85 % 0 mm 0.0 W/m2 SCT
04:25 13 °C 10.3 °C 1008 hPa WSW 3.7 km/h 3.7 km/h 84 % 0 mm 0.0 W/m2 SCT
04:30 12.9 °C 10.3 °C 1008 hPa WNW 5.6 km/h 5.6 km/h 84 % 0 mm 0.0 W/m2 SCT
Billingham Weather Station
Compliments of Weather Underground - 2.25 mb